createdAt,value
2018-12-06T00:02:35.466Z,9.06
2018-12-06T00:05:14.582Z,9.07
2018-12-06T00:11:09.812Z,9.18
2018-12-06T00:13:42.346Z,9.13
2018-12-06T00:16:18.069Z,9.11
2018-12-06T00:19:08.394Z,9.10
2018-12-06T00:21:54.553Z,9.08
2018-12-06T00:24:32.869Z,9.04
2018-12-06T00:27:11.730Z,9.11
2018-12-06T00:29:51.438Z,9.01
2018-12-06T00:32:22.499Z,9.05
2018-12-06T00:34:57.165Z,9.03
2018-12-06T00:37:34.986Z,9.07
2018-12-06T00:40:13.825Z,8.99
2018-12-06T00:42:44.996Z,8.97
2018-12-06T00:45:19.724Z,8.95
2018-12-06T00:47:50.846Z,8.98
2018-12-06T00:50:29.743Z,9.09
2018-12-06T00:53:02.067Z,9.12
2018-12-06T00:55:32.014Z,9.08
2018-12-06T00:58:03.197Z,9.01
2018-12-06T01:00:35.481Z,9.09
2018-12-06T01:03:07.381Z,9.07
2018-12-06T01:05:45.908Z,9.15
2018-12-06T01:08:28.656Z,9.13
2018-12-06T01:10:59.522Z,9.10
2018-12-06T01:13:30.758Z,9.07
2018-12-06T01:16:00.586Z,9.11
2018-12-06T01:18:31.716Z,9.08
2018-12-06T01:21:05.626Z,9.07
2018-12-06T01:23:45.339Z,9.08
2018-12-06T01:26:16.788Z,9.13
2018-12-06T01:28:51.418Z,9.13
2018-12-06T01:31:31.171Z,9.06
2018-12-06T01:34:06.178Z,9.05
2018-12-06T01:36:45.105Z,9.02
2018-12-06T01:39:27.671Z,9.05
2018-12-06T01:41:57.320Z,9.08
2018-12-06T01:44:35.741Z,9.08
2018-12-06T01:47:14.907Z,9.06
2018-12-06T01:49:51.048Z,9.14
2018-12-06T01:52:22.182Z,9.06
2018-12-06T01:54:56.058Z,9.03
2018-12-06T01:57:28.120Z,9.04
2018-12-06T01:59:59.275Z,9.04
2018-12-06T02:02:31.262Z,9.06
2018-12-06T02:05:08.199Z,9.03
2018-12-06T02:07:39.341Z,9.05
2018-12-06T02:10:12.265Z,9.07
2018-12-06T02:12:42.198Z,9.06
2018-12-06T02:15:17.077Z,9.09
2018-12-06T02:17:56.073Z,9.10
2018-12-06T02:20:27.096Z,9.11
2018-12-06T02:23:14.009Z,9.14
2018-12-06T02:25:53.878Z,9.19
2018-12-06T02:28:31.735Z,9.14
2018-12-06T02:31:09.660Z,9.06
2018-12-06T02:33:43.784Z,9.09
2018-12-06T02:36:17.643Z,9.06
2018-12-06T02:38:56.949Z,9.18
2018-12-06T02:41:31.651Z,9.08
2018-12-06T02:44:03.092Z,9.02
2018-12-06T02:46:37.731Z,9.09
2018-12-06T02:49:07.194Z,9.08
2018-12-06T02:51:38.964Z,9.03
2018-12-06T02:54:10.223Z,8.97
2018-12-06T02:56:41.308Z,8.95
2018-12-06T02:59:11.227Z,8.93
2018-12-06T03:01:42.378Z,8.89
2018-12-06T03:04:12.386Z,8.94
2018-12-06T03:06:43.253Z,8.84
2018-12-06T03:09:13.184Z,8.81
2018-12-06T03:11:44.633Z,8.83
2018-12-06T03:14:23.257Z,8.77
2018-12-06T03:17:05.944Z,8.78
2018-12-06T03:19:44.407Z,8.81
2018-12-06T03:22:20.229Z,8.86
2018-12-06T03:25:09.392Z,8.80
2018-12-06T03:27:48.400Z,8.79
2018-12-06T03:30:26.541Z,8.74
2018-12-06T03:33:00.017Z,8.72
2018-12-06T03:35:31.074Z,8.73
2018-12-06T03:38:10.122Z,8.79
2018-12-06T03:40:40.593Z,8.90
2018-12-06T03:43:11.963Z,9.07
2018-12-06T03:45:46.680Z,9.01
2018-12-06T03:48:24.432Z,8.96
2018-12-06T03:50:55.990Z,8.79
2018-12-06T03:53:27.049Z,9.14
2018-12-06T03:55:59.132Z,9.03
2018-12-06T03:58:32.836Z,8.86
2018-12-06T04:01:02.741Z,8.75
2018-12-06T04:03:35.692Z,8.92
2018-12-06T04:06:14.441Z,9.09
2018-12-06T04:08:54.374Z,9.26
2018-12-06T04:11:24.330Z,9.10
2018-12-06T04:13:54.172Z,8.93
2018-12-06T04:16:33.845Z,8.98
2018-12-06T04:19:07.015Z,9.00
2018-12-06T04:21:41.063Z,9.01
2018-12-06T04:24:15.064Z,8.95
2018-12-06T04:26:46.296Z,9.03
2018-12-06T04:29:20.117Z,8.99
2018-12-06T04:31:54.476Z,8.97
2018-12-06T04:34:32.567Z,9.04
2018-12-06T04:39:57.838Z,9.24
2018-12-06T04:42:36.718Z,9.10
2018-12-06T04:45:11.190Z,9.09
2018-12-06T04:47:43.835Z,9.08
2018-12-06T04:50:21.829Z,9.31
2018-12-06T04:52:53.022Z,9.28
2018-12-06T04:55:31.698Z,9.25
2018-12-06T04:58:10.915Z,9.21
2018-12-06T05:00:53.440Z,9.34
2018-12-06T05:03:35.424Z,9.35
2018-12-06T05:06:14.857Z,9.33
2018-12-06T05:08:55.503Z,9.42
2018-12-06T05:11:28.362Z,9.50
2018-12-06T05:14:13.779Z,9.62
2018-12-06T05:16:53.129Z,9.72
2018-12-06T05:19:31.125Z,9.64
2018-12-06T05:22:03.430Z,9.63
2018-12-06T05:24:43.231Z,9.51
2018-12-06T05:27:16.473Z,9.41
2018-12-06T05:29:48.727Z,9.42
2018-12-06T05:32:21.941Z,9.66
2018-12-06T05:35:00.721Z,9.76
2018-12-06T05:37:39.850Z,9.80
2018-12-06T05:40:25.439Z,9.65
2018-12-06T05:42:59.836Z,9.47
2018-12-06T05:45:33.067Z,9.59
2018-12-06T05:48:12.002Z,9.55
2018-12-06T05:50:50.794Z,9.57
2018-12-06T05:53:24.112Z,9.53
2018-12-06T05:55:57.093Z,9.83
2018-12-06T05:58:29.183Z,9.76
2018-12-06T06:01:08.646Z,9.49
2018-12-06T06:03:40.988Z,9.46
2018-12-06T06:06:20.691Z,9.44
2018-12-06T06:08:54.141Z,9.56
2018-12-06T06:11:32.921Z,9.74
2018-12-06T06:14:24.811Z,9.72
2018-12-06T06:17:03.646Z,9.56
2018-12-06T06:19:37.223Z,9.52
2018-12-06T06:22:08.440Z,9.46
2018-12-06T06:24:43.469Z,9.49
2018-12-06T06:27:22.385Z,9.55
2018-12-06T06:29:57.502Z,9.56
2018-12-06T06:32:28.810Z,9.43
2018-12-06T06:35:07.829Z,9.58
2018-12-06T06:37:45.777Z,9.63
2018-12-06T06:40:16.778Z,9.87
2018-12-06T06:42:48.716Z,9.97
2018-12-06T06:45:18.699Z,9.87
2018-12-06T06:47:51.849Z,9.80
2018-12-06T06:50:31.519Z,9.95
2018-12-06T06:53:05.653Z,9.82
2018-12-06T06:55:44.682Z,9.83
2018-12-06T06:58:16.905Z,9.84
2018-12-06T07:00:54.770Z,9.79
2018-12-06T07:03:29.004Z,9.86
2018-12-06T07:08:55.817Z,9.88
2018-12-06T07:11:34.396Z,9.87
2018-12-06T07:14:13.201Z,9.86
2018-12-06T07:19:38.438Z,9.95
2018-12-06T07:25:01.946Z,9.97
2018-12-06T07:27:41.426Z,9.96
2018-12-06T07:30:13.646Z,9.98
2018-12-06T07:32:45.686Z,10.02
2018-12-06T07:35:24.649Z,10.07
2018-12-06T07:38:03.754Z,10.09
2018-12-06T07:40:41.499Z,10.28
2018-12-06T07:43:13.810Z,10.07
2018-12-06T07:45:47.034Z,10.07
2018-12-06T07:48:39.522Z,10.12
2018-12-06T07:51:13.599Z,10.06
2018-12-06T07:53:46.644Z,10.05
2018-12-06T07:56:18.986Z,10.16
2018-12-06T07:58:51.919Z,10.16
2018-12-06T08:01:29.688Z,10.21
2018-12-06T08:04:01.695Z,10.18
2018-12-06T08:06:39.529Z,10.18
2018-12-06T08:09:13.460Z,10.22
2018-12-06T08:11:44.742Z,10.51
2018-12-06T08:14:22.483Z,10.69
2018-12-06T08:17:01.419Z,10.45
2018-12-06T08:19:36.560Z,10.40
2018-12-06T08:22:08.744Z,10.35
2018-12-06T08:24:39.808Z,10.41
2018-12-06T08:27:14.589Z,10.46
2018-12-06T08:29:46.909Z,10.53
2018-12-06T08:32:19.079Z,10.55
2018-12-06T08:34:59.103Z,10.73
2018-12-06T08:37:39.056Z,10.69
2018-12-06T08:40:13.071Z,10.80
2018-12-06T08:42:58.342Z,10.75
2018-12-06T08:45:31.243Z,10.62
2018-12-06T08:48:10.033Z,10.63
2018-12-06T08:50:41.443Z,10.64
2018-12-06T08:53:13.307Z,10.62
2018-12-06T08:55:52.800Z,10.66
2018-12-06T08:58:30.756Z,10.69
2018-12-06T09:01:09.612Z,10.68
2018-12-06T09:03:42.806Z,10.74
2018-12-06T09:06:17.731Z,10.73
2018-12-06T09:08:49.847Z,10.78
2018-12-06T09:11:27.655Z,10.86
2018-12-06T09:14:06.743Z,10.95
2018-12-06T09:16:38.699Z,10.93
2018-12-06T09:19:16.451Z,10.95
2018-12-06T09:21:48.947Z,10.94
2018-12-06T09:24:27.577Z,11.00
2018-12-06T09:27:01.864Z,11.04
2018-12-06T09:29:41.033Z,11.04
2018-12-06T09:32:16.484Z,11.11
2018-12-06T09:37:48.255Z,11.24
2018-12-06T09:43:12.841Z,11.29
2018-12-06T09:45:50.689Z,11.37
2018-12-06T09:48:21.224Z,11.43
2018-12-06T09:51:00.298Z,11.34
2018-12-06T09:53:32.367Z,11.37
2018-12-06T09:56:17.688Z,11.37
2018-12-06T09:58:56.102Z,11.38
2018-12-06T10:01:34.264Z,11.49
2018-12-06T10:04:06.414Z,11.50
2018-12-06T10:06:45.399Z,11.58
2018-12-06T10:09:19.662Z,11.62
2018-12-06T10:11:54.178Z,11.60
2018-12-06T10:14:32.703Z,11.62
2018-12-06T10:17:10.723Z,11.71
2018-12-06T10:19:48.713Z,11.76
2018-12-06T10:22:35.292Z,11.91
2018-12-06T10:25:13.777Z,11.85
2018-12-06T10:27:54.635Z,11.92
2018-12-06T10:30:24.229Z,12.02
2018-12-06T10:33:08.650Z,12.09
2018-12-06T10:35:48.151Z,12.09
2018-12-06T10:38:26.960Z,12.12
2018-12-06T10:41:12.807Z,12.14
2018-12-06T10:43:44.292Z,12.15
2018-12-06T10:46:18.253Z,12.21
2018-12-06T10:48:52.484Z,12.25
2018-12-06T10:51:33.069Z,12.28
2018-12-06T10:54:10.977Z,12.30
2018-12-06T10:59:42.495Z,12.30
2018-12-06T11:02:20.092Z,12.31
2018-12-06T11:04:58.098Z,12.34
2018-12-06T11:07:36.800Z,12.41
2018-12-06T11:10:07.906Z,12.43
2018-12-06T11:12:38.951Z,12.41
2018-12-06T11:15:17.927Z,12.36
2018-12-06T11:18:03.407Z,12.40
2018-12-06T11:20:37.669Z,12.36
2018-12-06T11:23:08.814Z,12.42
2018-12-06T11:25:47.240Z,12.58
2018-12-06T11:28:18.732Z,12.51
2018-12-06T11:30:57.539Z,12.48
2018-12-06T11:33:28.786Z,12.46
2018-12-06T11:36:06.694Z,12.44
2018-12-06T11:38:38.932Z,12.37
2018-12-06T11:41:18.621Z,12.41
2018-12-06T11:43:53.510Z,12.49
2018-12-06T11:46:25.953Z,12.39
2018-12-06T11:51:54.192Z,12.43
2018-12-06T11:54:28.322Z,12.40
2018-12-06T11:57:03.151Z,12.36
2018-12-06T11:59:50.142Z,12.48
2018-12-06T12:02:21.300Z,12.44
2018-12-06T12:07:53.922Z,12.41
2018-12-06T12:10:35.436Z,12.46
2018-12-06T12:13:07.048Z,12.34
2018-12-06T12:15:38.898Z,12.47
2018-12-06T12:18:10.350Z,12.33
2018-12-06T12:20:49.249Z,12.38
2018-12-06T12:23:20.418Z,12.31
2018-12-06T12:25:58.145Z,12.37
2018-12-06T12:28:36.166Z,12.47
2018-12-06T12:31:07.344Z,12.51
2018-12-06T12:33:38.490Z,12.47
2018-12-06T12:36:16.297Z,12.59
2018-12-06T12:38:45.945Z,12.63
2018-12-06T12:41:27.007Z,12.65
2018-12-06T12:44:06.846Z,12.68
2018-12-06T12:46:42.261Z,12.65
2018-12-06T12:49:24.085Z,12.66
2018-12-06T12:51:58.910Z,12.70
2018-12-06T12:54:28.841Z,12.73
2018-12-06T12:57:02.742Z,12.70
2018-12-06T12:59:40.525Z,12.72
2018-12-06T13:02:12.957Z,12.73
2018-12-06T13:05:00.650Z,12.72
2018-12-06T13:07:39.383Z,12.75
2018-12-06T13:10:15.524Z,12.69
2018-12-06T13:12:54.539Z,12.93
2018-12-06T13:15:33.880Z,12.82
2018-12-06T13:18:12.468Z,12.83
2018-12-06T13:20:45.048Z,12.80
2018-12-06T13:23:17.868Z,12.84
2018-12-06T13:25:50.035Z,12.76
2018-12-06T13:28:28.654Z,12.73
2018-12-06T13:31:01.005Z,12.79
2018-12-06T13:33:35.806Z,12.79
2018-12-06T13:36:13.975Z,12.75
2018-12-06T13:38:44.187Z,12.82
2018-12-06T13:41:23.752Z,12.82
2018-12-06T13:43:57.649Z,13.00
2018-12-06T13:46:37.740Z,12.90
2018-12-06T13:49:10.670Z,12.76
2018-12-06T13:51:48.895Z,12.74
2018-12-06T13:54:26.887Z,12.81
2018-12-06T13:56:52.998Z,12.94
2018-12-06T13:59:27.011Z,12.93
2018-12-06T14:01:56.997Z,12.92
2018-12-06T14:04:36.625Z,12.85
2018-12-06T14:07:06.571Z,12.87
2018-12-06T14:09:45.432Z,12.83
2018-12-06T14:12:17.761Z,12.82
2018-12-06T14:14:51.043Z,12.84
2018-12-06T14:17:30.621Z,12.97
2018-12-06T14:20:10.706Z,12.96
2018-12-06T14:22:44.771Z,12.98
2018-12-06T14:25:24.560Z,12.97
2018-12-06T14:28:11.159Z,13.07
2018-12-06T14:30:42.028Z,13.01
2018-12-06T14:33:12.857Z,13.02
2018-12-06T14:38:44.477Z,12.92
2018-12-06T14:41:34.181Z,13.03
2018-12-06T14:44:11.876Z,13.01
2018-12-06T14:46:43.020Z,12.96
2018-12-06T14:49:21.971Z,13.00
2018-12-06T14:51:57.207Z,12.93
2018-12-06T14:54:28.093Z,13.06
2018-12-06T14:56:58.025Z,13.05
2018-12-06T14:59:28.815Z,12.97
2018-12-06T15:02:10.197Z,12.98
2018-12-06T15:04:49.637Z,13.00
2018-12-06T15:07:22.119Z,12.98
2018-12-06T15:10:00.989Z,12.99
2018-12-06T15:12:32.124Z,13.12
2018-12-06T15:15:06.225Z,13.18
2018-12-06T15:17:46.313Z,13.17
2018-12-06T15:23:12.952Z,13.20
2018-12-06T15:25:52.519Z,13.12
2018-12-06T15:28:31.866Z,13.18
2018-12-06T15:31:09.987Z,13.05
2018-12-06T15:33:45.241Z,12.98
2018-12-06T15:36:25.984Z,13.07
2018-12-06T15:38:57.300Z,13.07
2018-12-06T15:41:35.237Z,12.97
2018-12-06T15:44:10.263Z,13.11
2018-12-06T15:46:44.298Z,13.07
2018-12-06T15:49:19.525Z,13.11
2018-12-06T15:51:53.354Z,12.93
2018-12-06T15:54:32.277Z,12.96
2018-12-06T15:57:19.063Z,13.02
2018-12-06T15:59:57.296Z,13.00
2018-12-06T16:02:28.532Z,12.99
2018-12-06T16:05:00.612Z,12.93
2018-12-06T16:07:41.326Z,12.99
2018-12-06T16:10:15.705Z,13.07
2018-12-06T16:12:51.915Z,12.94
2018-12-06T16:15:31.038Z,13.07
2018-12-06T16:18:09.968Z,13.03
2018-12-06T16:20:43.426Z,12.92
2018-12-06T16:23:16.400Z,12.94
2018-12-06T16:26:02.233Z,13.10
2018-12-06T16:28:33.784Z,13.06
2018-12-06T16:31:13.296Z,12.93
2018-12-06T16:33:46.375Z,13.05
2018-12-06T16:36:28.808Z,13.08
2018-12-06T16:38:58.485Z,13.02
2018-12-06T16:41:44.823Z,12.85
2018-12-06T16:44:25.193Z,12.87
2018-12-06T16:47:01.164Z,12.81
2018-12-06T16:49:34.143Z,12.81
2018-12-06T16:52:06.708Z,12.79
2018-12-06T16:54:46.059Z,12.80
2018-12-06T16:57:27.085Z,12.80
2018-12-06T17:00:14.605Z,12.82
2018-12-06T17:02:48.708Z,12.82
2018-12-06T17:05:19.650Z,12.91
2018-12-06T17:07:50.506Z,12.99
2018-12-06T17:13:16.760Z,12.88
2018-12-06T17:15:48.106Z,12.85
2018-12-06T17:18:27.837Z,12.87
2018-12-06T17:21:02.995Z,12.88
2018-12-06T17:23:35.265Z,12.89
2018-12-06T17:26:14.969Z,12.89
2018-12-06T17:28:50.036Z,12.89
2018-12-06T17:31:24.837Z,12.89
2018-12-06T17:33:57.015Z,12.90
2018-12-06T17:36:27.962Z,12.98
2018-12-06T17:39:07.093Z,12.93
2018-12-06T17:41:47.634Z,12.89
2018-12-06T17:44:37.658Z,12.91
2018-12-06T17:47:11.940Z,12.97
2018-12-06T17:49:51.875Z,12.93
2018-12-06T17:52:23.393Z,12.94
2018-12-06T17:54:56.557Z,13.00
2018-12-06T17:57:27.281Z,12.99
2018-12-06T17:59:59.469Z,12.95
2018-12-06T18:02:31.534Z,12.95
2018-12-06T18:05:10.518Z,13.00
2018-12-06T18:07:41.890Z,13.03
2018-12-06T18:10:29.193Z,13.09
2018-12-06T18:13:01.273Z,13.06
2018-12-06T18:15:31.576Z,13.06
2018-12-06T18:18:16.975Z,13.08
2018-12-06T18:20:56.507Z,13.09
2018-12-06T18:23:28.613Z,13.14
2018-12-06T18:26:14.762Z,13.04
2018-12-06T18:28:45.404Z,13.06
2018-12-06T18:31:24.423Z,13.03
2018-12-06T18:33:58.203Z,13.04
2018-12-06T18:36:33.165Z,13.06
2018-12-06T18:39:12.301Z,13.02
2018-12-06T18:41:47.232Z,13.07
2018-12-06T18:44:27.661Z,13.20
2018-12-06T18:47:07.666Z,13.04
2018-12-06T18:49:46.952Z,13.11
2018-12-06T18:52:19.293Z,13.17
2018-12-06T18:54:54.360Z,13.14
2018-12-06T18:57:26.959Z,13.12
2018-12-06T18:59:57.992Z,13.10
2018-12-06T19:02:31.181Z,13.11
2018-12-06T19:05:22.974Z,13.11
2018-12-06T19:10:48.801Z,13.09
2018-12-06T19:13:20.967Z,13.05
2018-12-06T19:15:59.959Z,13.06
2018-12-06T19:18:37.879Z,13.04
2018-12-06T19:21:16.688Z,13.05
2018-12-06T19:23:58.512Z,13.05
2018-12-06T19:26:37.783Z,13.21
2018-12-06T19:29:10.730Z,13.07
2018-12-06T19:31:49.804Z,13.07
2018-12-06T19:34:22.836Z,13.08
2018-12-06T19:36:54.466Z,13.04
2018-12-06T19:39:39.154Z,13.00
2018-12-06T19:42:14.391Z,13.05
2018-12-06T19:44:53.396Z,12.94
2018-12-06T19:47:29.177Z,13.04
2018-12-06T19:50:08.724Z,12.97
2018-12-06T19:52:41.302Z,12.96
2018-12-06T19:55:17.381Z,13.06
2018-12-06T19:57:57.927Z,13.05
2018-12-06T20:00:38.177Z,13.16
2018-12-06T20:03:11.774Z,13.16
2018-12-06T20:05:52.428Z,13.15
2018-12-06T20:08:34.470Z,13.16
2018-12-06T20:11:09.087Z,13.17
2018-12-06T20:13:41.940Z,13.19
2018-12-06T20:16:13.965Z,13.21
2018-12-06T20:18:51.883Z,13.21
2018-12-06T20:21:31.545Z,13.19
2018-12-06T20:24:10.983Z,13.28
2018-12-06T20:26:49.907Z,13.28
2018-12-06T20:29:28.515Z,13.23
2018-12-06T20:31:59.703Z,13.21
2018-12-06T20:34:40.237Z,13.26
2018-12-06T20:40:07.761Z,13.31
2018-12-06T20:42:41.795Z,13.32
2018-12-06T20:45:22.444Z,13.33
2018-12-06T20:48:05.527Z,13.36
2018-12-06T20:50:49.335Z,13.37
2018-12-06T20:53:25.710Z,13.35
2018-12-06T20:55:58.971Z,13.39
2018-12-06T20:58:37.520Z,13.33
2018-12-06T21:01:10.840Z,13.32
2018-12-06T21:03:43.951Z,13.36
2018-12-06T21:06:24.553Z,13.40
2018-12-06T21:09:11.558Z,13.32
2018-12-06T21:11:51.335Z,13.37
2018-12-06T21:14:22.759Z,13.32
2018-12-06T21:17:05.034Z,13.31
2018-12-06T21:19:44.239Z,13.33
2018-12-06T21:22:16.708Z,13.33
2018-12-06T21:24:56.238Z,13.31
2018-12-06T21:27:40.811Z,13.35
2018-12-06T21:30:15.059Z,13.41
2018-12-06T21:32:46.398Z,13.39
2018-12-06T21:35:25.294Z,13.40
2018-12-06T21:38:11.934Z,13.34
2018-12-06T21:40:44.500Z,13.38
2018-12-06T21:43:16.595Z,13.31
2018-12-06T21:45:54.435Z,13.34
2018-12-06T21:51:20.647Z,13.24
2018-12-06T21:53:52.784Z,13.25
2018-12-06T21:56:33.509Z,13.22
2018-12-06T21:59:11.731Z,13.23
2018-12-06T22:01:42.188Z,13.21
2018-12-06T22:07:13.939Z,13.17
2018-12-06T22:09:53.212Z,13.02
2018-12-06T22:12:26.500Z,12.95
2018-12-06T22:15:05.668Z,13.00
2018-12-06T22:17:46.162Z,12.97
2018-12-06T22:20:18.468Z,12.89
2018-12-06T22:22:50.824Z,12.80
2018-12-06T22:25:23.753Z,12.79
2018-12-06T22:28:02.330Z,12.76
2018-12-06T22:30:40.515Z,12.80
2018-12-06T22:33:11.913Z,12.74
2018-12-06T22:35:51.602Z,12.74
2018-12-06T22:38:34.043Z,12.76
2018-12-06T22:41:11.285Z,12.68
2018-12-06T22:43:50.234Z,12.62
2018-12-06T22:49:19.948Z,12.54
2018-12-06T22:51:51.222Z,12.50
2018-12-06T22:54:30.623Z,12.58
2018-12-06T23:02:49.073Z,12.43
2018-12-06T23:05:27.870Z,12.30
2018-12-06T23:08:06.272Z,12.34
2018-12-06T23:10:38.478Z,12.33
2018-12-06T23:13:11.451Z,12.31
2018-12-06T23:15:50.974Z,12.40
2018-12-06T23:18:29.972Z,12.38
2018-12-06T23:21:01.191Z,12.42
2018-12-06T23:23:33.077Z,12.38
2018-12-06T23:26:10.904Z,12.39
2018-12-06T23:28:50.754Z,12.40
2018-12-06T23:34:22.718Z,12.34
2018-12-06T23:37:02.068Z,12.41
2018-12-06T23:39:41.101Z,12.44
2018-12-06T23:45:11.901Z,12.41
2018-12-06T23:47:53.132Z,12.48
2018-12-06T23:50:27.478Z,12.42
2018-12-06T23:52:58.508Z,12.46
2018-12-06T23:55:37.137Z,12.47
2018-12-06T23:58:09.289Z,12.49
